createdAt,value
2024-04-19T00:00:29.607Z,3.65
2024-04-19T00:05:33.283Z,3.88
2024-04-19T00:10:34.321Z,3.60
2024-04-19T00:15:35.426Z,4.35
2024-04-19T00:20:39.128Z,4.95
2024-04-19T00:25:43.044Z,3.88
2024-04-19T00:30:44.697Z,4.32
2024-04-19T00:35:48.487Z,3.78
2024-04-19T00:40:49.463Z,4.68
2024-04-19T00:45:52.302Z,3.95
2024-04-19T00:50:59.708Z,4.43
2024-04-19T00:56:02.878Z,4.45
2024-04-19T01:01:08.768Z,4.60
2024-04-19T01:06:12.656Z,4.47
2024-04-19T01:11:13.719Z,4.47
2024-04-19T01:16:16.625Z,4.53
2024-04-19T01:21:29.661Z,4.40
2024-04-19T01:26:33.346Z,4.43
2024-04-19T01:31:34.409Z,4.75
2024-04-19T01:36:35.533Z,5.15
2024-04-19T01:41:39.348Z,4.38
2024-04-19T01:46:40.544Z,5.18
2024-04-19T01:51:41.559Z,5.18
2024-04-19T01:56:45.273Z,5.05
2024-04-19T02:01:46.325Z,4.70
2024-04-19T02:06:47.408Z,4.50
2024-04-19T02:12:08.733Z,4.25
2024-04-19T02:17:09.802Z,4.85
2024-04-19T02:22:10.822Z,5.10
2024-04-19T02:27:41.513Z,4.32
2024-04-19T02:32:42.683Z,4.15
2024-04-19T02:37:43.784Z,4.20
2024-04-19T02:42:47.586Z,5.07
2024-04-19T02:47:48.625Z,4.65
2024-04-19T02:52:49.672Z,4.72
2024-04-19T02:57:53.450Z,4.97
2024-04-19T03:03:14.939Z,5.85
2024-04-19T03:08:15.934Z,5.47
2024-04-19T03:13:19.842Z,5.20
2024-04-19T03:18:21.086Z,5.40
2024-04-19T03:23:22.139Z,5.72
2024-04-19T03:28:25.896Z,5.43
2024-04-19T03:33:27.063Z,4.80
2024-04-19T03:38:29.553Z,4.93
2024-04-19T03:43:34.596Z,5.37
2024-04-19T03:48:35.620Z,5.18
2024-04-19T03:53:36.599Z,4.88
2024-04-19T03:58:40.295Z,6.72
2024-04-19T04:03:41.441Z,6.00
2024-04-19T04:08:42.448Z,7.63
2024-04-19T04:13:46.390Z,5.65
2024-04-19T04:18:47.469Z,5.63
2024-04-19T04:23:48.534Z,6.45
2024-04-19T04:28:52.447Z,9.27
2024-04-19T04:33:57.207Z,6.50
2024-04-19T04:39:01.635Z,6.60
2024-04-19T04:44:08.777Z,5.90
2024-04-19T04:49:11.430Z,11.05
2024-04-19T04:54:12.466Z,9.50
2024-04-19T04:59:17.075Z,7.55
2024-04-19T05:04:18.153Z,6.18
2024-04-19T05:09:19.409Z,5.70
2024-04-19T05:14:23.139Z,5.72
2024-04-19T05:19:29.869Z,5.97
2024-04-19T05:24:32.884Z,6.35
2024-04-19T05:29:38.845Z,7.13
2024-04-19T05:34:39.807Z,6.60
2024-04-19T05:39:41.281Z,6.00
2024-04-19T05:44:44.997Z,6.57
2024-04-19T05:49:45.911Z,6.82
2024-04-19T05:54:47.031Z,7.53
2024-04-19T05:59:50.657Z,5.20
2024-04-19T06:04:51.638Z,6.60
2024-04-19T06:09:52.704Z,5.97
2024-04-19T06:14:56.317Z,6.78
2024-04-19T06:19:57.533Z,6.40
2024-04-19T06:24:58.821Z,7.07
2024-04-19T06:30:04.508Z,6.18
2024-04-19T06:35:06.514Z,6.75
2024-04-19T06:40:09.118Z,6.40
2024-04-19T06:45:15.999Z,6.25
2024-04-19T06:50:38.221Z,5.32
2024-04-19T07:01:19.308Z,3.08
2024-04-19T07:06:30.310Z,5.60
2024-04-19T07:11:39.532Z,6.50
2024-04-19T07:16:43.407Z,6.20
2024-04-19T07:21:44.648Z,4.82
2024-04-19T07:26:48.946Z,5.35
2024-04-19T07:31:52.826Z,5.38
2024-04-19T07:36:54.783Z,5.95
2024-04-19T07:41:57.164Z,5.60
2024-04-19T07:47:01.618Z,5.43
2024-04-19T07:52:03.432Z,5.10
2024-04-19T07:57:04.622Z,5.07
2024-04-19T08:02:08.349Z,4.68
2024-04-19T08:07:24.455Z,6.00
2024-04-19T08:12:29.683Z,5.32
2024-04-19T08:17:36.928Z,4.85
2024-04-19T08:22:37.826Z,5.75
2024-04-19T08:27:44.204Z,4.20
2024-04-19T08:32:49.077Z,5.85
2024-04-19T08:37:52.467Z,3.92
2024-04-19T08:42:56.992Z,4.35
2024-04-19T08:48:02.670Z,3.70
2024-04-19T08:53:15.392Z,3.88
2024-04-19T08:58:19.659Z,4.40
2024-04-19T09:03:23.479Z,4.38
2024-04-19T09:08:24.727Z,4.13
2024-04-19T09:13:25.663Z,3.70
2024-04-19T09:18:30.146Z,3.17
2024-04-19T09:23:31.132Z,3.38
2024-04-19T09:28:33.129Z,2.88
2024-04-19T09:33:36.946Z,3.42
2024-04-19T09:38:41.335Z,2.72
2024-04-19T09:43:43.890Z,2.38
2024-04-19T09:48:51.798Z,3.03
2024-04-19T09:53:54.307Z,3.22
2024-04-19T09:58:56.626Z,2.40
2024-04-19T10:04:10.302Z,2.83
2024-04-19T10:09:14.885Z,1.67
2024-04-19T10:14:16.451Z,1.60
2024-04-19T10:24:23.707Z,1.60
2024-04-19T10:29:27.183Z,1.90
2024-04-19T10:34:34.280Z,1.63
2024-04-19T10:39:35.679Z,1.60
2024-04-19T10:44:36.930Z,1.70
2024-04-19T10:54:41.483Z,1.50
2024-04-19T10:59:42.790Z,2.00
2024-04-19T11:04:48.266Z,1.95
2024-04-19T11:09:49.342Z,1.40
2024-04-19T11:14:50.277Z,1.50
2024-04-19T11:24:58.521Z,1.58
2024-04-19T11:29:59.632Z,1.20
2024-04-19T11:35:12.208Z,1.00
2024-04-19T11:40:24.018Z,1.10
2024-04-19T11:45:25.260Z,1.02
2024-04-19T11:50:32.486Z,0.77
2024-04-19T11:55:33.650Z,0.95
2024-04-19T12:00:38.318Z,0.80
2024-04-19T12:05:42.645Z,0.90
2024-04-19T12:10:43.976Z,0.82
2024-04-19T12:16:20.289Z,1.02
2024-04-19T12:21:09.547Z,0.85
2024-04-19T12:31:12.029Z,0.80
2024-04-19T12:36:19.404Z,0.80
2024-04-19T12:41:20.763Z,1.42
2024-04-19T12:46:22.326Z,0.90
2024-04-19T12:51:29.103Z,0.80
2024-04-19T12:56:30.322Z,0.98
2024-04-19T13:01:31.383Z,0.90
2024-04-19T13:06:35.687Z,0.80
2024-04-19T13:11:36.833Z,1.00
2024-04-19T13:16:38.137Z,0.82
2024-04-19T13:21:42.172Z,1.00
2024-04-19T13:26:43.503Z,0.57
2024-04-19T13:31:46.227Z,1.13
2024-04-19T13:36:50.698Z,1.27
2024-04-19T13:41:51.977Z,1.30
2024-04-19T13:46:53.172Z,1.70
2024-04-19T13:51:57.235Z,1.17
2024-04-19T13:56:58.291Z,1.27
2024-04-19T14:01:59.788Z,1.10
2024-04-19T14:07:03.566Z,2.30
2024-04-19T14:12:04.585Z,0.95
2024-04-19T14:17:05.711Z,1.08
2024-04-19T14:22:09.949Z,0.93
2024-04-19T14:27:11.142Z,1.05
2024-04-19T14:32:12.117Z,0.68
2024-04-19T14:37:16.522Z,0.57
2024-04-19T14:42:18.670Z,1.02
2024-04-19T14:47:19.838Z,0.63
2024-04-19T14:52:23.507Z,0.80
2024-04-19T14:57:25.452Z,0.70
2024-04-19T15:02:26.824Z,1.15
2024-04-19T15:07:30.611Z,0.52
2024-04-19T15:12:33.437Z,1.45
2024-04-19T15:17:34.612Z,0.88
2024-04-19T15:22:38.197Z,0.93
2024-04-19T15:27:39.135Z,0.60
2024-04-19T15:32:40.209Z,0.50
2024-04-19T15:42:45.153Z,0.57
2024-04-19T15:52:49.830Z,0.63
2024-04-19T15:57:50.976Z,0.50
2024-04-19T16:07:55.694Z,0.77
2024-04-19T16:12:56.720Z,0.60
2024-04-19T16:17:58.003Z,0.50
2024-04-19T16:23:01.618Z,0.50
2024-04-19T16:28:02.775Z,0.70
2024-04-19T16:33:04.007Z,0.60
2024-04-19T16:38:07.965Z,0.73
2024-04-19T16:43:09.634Z,1.23
2024-04-19T16:48:11.414Z,0.55
2024-04-19T16:53:15.651Z,0.60
2024-04-19T16:58:19.306Z,1.30
2024-04-19T17:03:21.147Z,1.42
2024-04-19T17:08:25.299Z,0.88
2024-04-19T17:13:26.438Z,7.47
2024-04-19T17:18:30.104Z,5.03
2024-04-19T17:23:33.775Z,4.32
2024-04-19T17:28:34.758Z,2.63
2024-04-19T17:33:35.970Z,2.70
2024-04-19T17:38:40.332Z,3.17
2024-04-19T17:43:41.434Z,3.53
2024-04-19T17:48:42.519Z,4.45
2024-04-19T17:53:47.635Z,6.43
2024-04-19T17:58:48.634Z,8.52
2024-04-19T18:03:49.639Z,6.72
2024-04-19T18:08:53.324Z,7.93
2024-04-19T18:13:54.178Z,6.47
2024-04-19T18:18:55.733Z,5.85
2024-04-19T18:24:02.526Z,5.60
2024-04-19T18:29:04.724Z,5.65
2024-04-19T18:34:08.138Z,5.03
2024-04-19T18:39:11.640Z,6.10
2024-04-19T18:44:15.213Z,4.90
2024-04-19T18:49:16.766Z,6.43
2024-04-19T18:54:20.443Z,4.00
2024-04-19T18:59:22.555Z,3.50
2024-04-19T19:04:24.300Z,4.85
2024-04-19T19:09:28.554Z,6.50
2024-04-19T19:14:32.606Z,7.10
2024-04-19T19:19:37.966Z,6.65
2024-04-19T19:24:43.309Z,7.32
2024-04-19T19:29:44.159Z,6.78
2024-04-19T19:34:48.201Z,6.82
2024-04-19T19:39:54.260Z,8.25
2024-04-19T19:44:58.293Z,9.13
2024-04-19T19:50:04.431Z,10.25
2024-04-19T19:55:10.280Z,11.57
2024-04-19T20:00:28.140Z,10.85
2024-04-19T20:05:44.093Z,10.65
2024-04-19T20:10:47.870Z,9.82
2024-04-19T20:15:50.593Z,10.00
2024-04-19T20:25:58.967Z,9.65
2024-04-19T20:31:00.922Z,10.30
2024-04-19T20:36:01.949Z,13.73
2024-04-19T20:41:05.616Z,12.55
2024-04-19T20:46:06.728Z,14.20
2024-04-19T20:51:08.240Z,9.18
2024-04-19T20:56:12.548Z,9.82
2024-04-19T21:01:15.813Z,5.63
2024-04-19T21:06:19.519Z,5.22
2024-04-19T21:11:23.487Z,5.18
2024-04-19T21:16:24.542Z,4.10
2024-04-19T21:21:27.319Z,6.00
2024-04-19T21:26:31.023Z,6.93
2024-04-19T21:31:31.980Z,6.50
2024-04-19T21:36:36.726Z,7.30
2024-04-19T21:41:40.476Z,6.82
2024-04-19T21:46:41.498Z,6.72
2024-04-19T21:51:43.540Z,6.30
2024-04-19T21:56:47.082Z,4.90
2024-04-19T22:01:48.129Z,4.20
2024-04-19T22:06:49.287Z,4.60
2024-04-19T22:11:52.962Z,5.20
2024-04-19T22:16:54.043Z,4.82
2024-04-19T22:21:55.153Z,3.47
2024-04-19T22:27:02.190Z,3.35
2024-04-19T22:32:03.148Z,2.83
2024-04-19T22:37:04.495Z,3.65
2024-04-19T22:42:08.919Z,2.92
2024-04-19T22:47:10.132Z,3.33
2024-04-19T22:52:11.498Z,2.63
2024-04-19T22:57:15.131Z,2.70
2024-04-19T23:02:16.314Z,2.38
2024-04-19T23:07:17.228Z,2.80
2024-04-19T23:12:21.003Z,3.05
2024-04-19T23:17:23.289Z,2.33
2024-04-19T23:22:24.425Z,2.30
2024-04-19T23:27:28.063Z,2.65
2024-04-19T23:32:29.123Z,2.40
2024-04-19T23:37:30.041Z,2.30
2024-04-19T23:42:34.016Z,2.63
2024-04-19T23:47:35.230Z,2.00
2024-04-19T23:52:36.325Z,2.00
2024-04-19T23:57:40.012Z,1.90
